This is the latest recevied weather packets stored in our database for station/object HF3P-11. If no packets are shown the sender has not sent any weather packets the latest 1 day(s).
| Time | Temp. | Humidity | Pressure | Rain* | Wind** | Luminosity | Snow |
|---|---|---|---|---|---|---|---|
| 1778058610 | 15.56° C | 79% | 997.6 hPa | 0 mm | - | - | - |
| 1778058300 | 15.56° C | 79% | 997.8 hPa | 0 mm | - | - | - |
| 1778057408 | 15.56° C | 80% | 997.4 hPa | 0 mm | - | - | - |
| 1778056808 | 15° C | 83% | 997.4 hPa | 0.25 mm | - | - | - |
| 1778056200 | 14.44° C | 83% | 997.2 hPa | 0.25 mm | - | - | - |
| 1778055908 | 14.44° C | 83% | 997.4 hPa | 0.25 mm | - | - | - |
| 1778054108 | 13.89° C | 88% | 997.3 hPa | 0.25 mm | - | - | - |
| 1778053800 | 13.33° C | 88% | 997 hPa | 0 mm | - | - | - |
| 1778053510 | 12.78° C | 89% | 996.9 hPa | 0 mm | - | - | - |
| 1778053200 | 12.78° C | 88% | 996.9 hPa | 0 mm | - | - | - |
| 1778052900 | 12.22° C | 88% | 997.3 hPa | 0 mm | - | - | - |
| 1778052300 | 12.22° C | 88% | 997.6 hPa | 0 mm | - | - | - |
| 1778052010 | 13.33° C | 87% | 997.5 hPa | 0 mm | - | - | - |
| 1778051408 | 12.22° C | 86% | 997.1 hPa | 0 mm | - | - | - |
| 1778051100 | 12.78° C | 83% | 997.2 hPa | 0 mm | - | - | - |
| 1778050810 | 12.78° C | 83% | 996.9 hPa | 0 mm | - | - | - |
| 1778050207 | 12.78° C | 83% | 997.1 hPa | 0 mm | - | - | - |
| 1778049608 | 12.78° C | 84% | 997.2 hPa | 0 mm | - | - | - |
| 1778049310 | 12.78° C | 85% | 997.2 hPa | 0 mm | - | - | - |
| 1778049000 | 12.78° C | 85% | 997.1 hPa | 0 mm | - | - | - |
| 1778048400 | 12.78° C | 86% | 997.1 hPa | 0 mm | - | - | - |
| 1778048107 | 12.22° C | 86% | 997 hPa | 0 mm | - | - | - |
| 1778046600 | 12.22° C | 86% | 996.9 hPa | 0 mm | - | - | - |
| 1778046000 | 12.22° C | 87% | 996.7 hPa | 0 mm | - | - | - |
| 1778044200 | 11.11° C | 92% | 997 hPa | 0 mm | - | - | - |
* Rain latest hour (hover to see other rain measurements)
** Current wind speed in m/s (hover to see current wind gust speed)